Time;durP1;ratioP1;P1;durP2;ratioP2;P2;SDS_P1;SDS_P2;PMS_P1;PMS_P2;Temp;Humidity;BMP_temperature;BMP_pressure;BME280_temperature;BME280_humidity;BME280_pressure;Samples;Min_cycle;Max_cycle;Signal;HPM_P1;HPM_P2
2022/04/12 00:00:31;;;;;;;4.80;2.38;;;6.60;99.90;;;;;;5066726;28;20037;-70
2022/04/12 00:02:57;;;;;;;6.90;3.22;;;6.60;99.90;;;;;;5082745;28;20032;-70
2022/04/12 00:05:23;;;;;;;6.65;2.83;;;6.60;99.90;;;;;;5038705;28;20049;-70
2022/04/12 00:07:49;;;;;;;5.63;3.45;;;6.60;99.90;;;;;;5063405;28;20089;-70
2022/04/12 00:10:15;;;;;;;4.80;3.03;;;6.90;99.90;;;;;;5067074;28;20052;-70
2022/04/12 00:12:42;;;;;;;6.80;2.97;;;6.60;99.90;;;;;;5068313;28;20108;-70
2022/04/12 00:15:09;;;;;;;6.57;3.05;;;6.60;99.90;;;;;;5036488;28;20049;-70
2022/04/12 00:20:20;;;;;;;5.22;3.33;;;6.60;99.90;;;;;;5031596;28;20050;-70
2022/04/12 00:22:47;;;;;;;6.03;3.00;;;6.70;99.90;;;;;;5037221;28;20327;-70
2022/04/12 00:25:13;;;;;;;8.13;3.58;;;6.50;99.90;;;;;;5053032;28;20041;-70
2022/04/12 00:27:41;;;;;;;10.07;3.60;;;6.50;99.90;;;;;;5052968;28;20076;-70
2022/04/12 00:30:08;;;;;;;5.35;3.00;;;6.30;99.90;;;;;;5035145;28;20052;-70
2022/04/12 00:32:34;;;;;;;5.20;3.10;;;6.30;99.90;;;;;;5036669;28;20213;-69
2022/04/12 00:35:01;;;;;;;3.88;3.00;;;6.50;99.90;;;;;;5017148;28;20080;-71
2022/04/12 00:37:27;;;;;;;8.23;3.88;;;6.70;99.90;;;;;;5046629;28;20104;-70
2022/04/12 00:39:54;;;;;;;5.45;3.22;;;6.40;99.90;;;;;;5044028;28;20041;-71
2022/04/12 00:42:20;;;;;;;4.47;3.00;;;6.50;99.90;;;;;;5032112;28;20108;-71
2022/04/12 00:44:46;;;;;;;4.50;3.13;;;6.30;99.90;;;;;;5066722;28;20033;-71
2022/04/12 00:47:11;;;;;;;4.13;3.03;;;6.30;99.90;;;;;;5051503;28;20054;-72
2022/04/12 00:49:37;;;;;;;5.57;2.95;;;6.30;99.90;;;;;;5040426;28;20060;-71
2022/04/12 00:52:04;;;;;;;4.63;3.80;;;6.20;99.90;;;;;;4999979;28;20049;-71
2022/04/12 00:54:32;;;;;;;5.53;3.05;;;6.40;99.90;;;;;;5017082;28;20046;-71
2022/04/12 00:56:59;;;;;;;5.53;3.55;;;6.40;99.90;;;;;;5073495;28;20046;-73
2022/04/12 00:59:26;;;;;;;5.68;3.63;;;6.40;99.90;;;;;;5041274;28;20030;-72
2022/04/12 01:01:52;;;;;;;8.55;3.70;;;6.20;99.90;;;;;;5071463;28;20091;-72
2022/04/12 01:04:19;;;;;;;6.35;3.58;;;6.40;99.90;;;;;;5049097;28;20044;-71
2022/04/12 01:06:45;;;;;;;7.28;3.65;;;6.50;99.90;;;;;;5040302;28;20033;-71
2022/04/12 01:09:12;;;;;;;6.72;3.75;;;6.50;99.90;;;;;;5041376;28;20263;-71
2022/04/12 01:11:39;;;;;;;5.28;3.25;;;6.30;99.90;;;;;;5040192;28;20197;-71
2022/04/12 01:14:07;;;;;;;6.93;4.13;;;6.40;99.90;;;;;;5040307;28;20048;-71
2022/04/12 01:16:33;;;;;;;5.85;4.30;;;6.20;99.90;;;;;;5041768;28;20226;-71
2022/04/12 01:18:59;;;;;;;7.63;3.70;;;6.20;99.90;;;;;;5009290;28;20041;-71
2022/04/12 01:21:30;;;;;;;6.05;4.00;;;6.30;99.90;;;;;;5039532;28;20087;-71
2022/04/12 01:24:06;;;;;;;7.68;3.45;;;6.40;99.90;;;;;;5040099;28;20030;-71
2022/04/12 01:26:32;;;;;;;5.90;3.72;;;6.30;99.90;;;;;;5053860;28;20256;-71
2022/04/12 01:28:58;;;;;;;5.93;4.32;;;6.40;99.90;;;;;;5039249;28;20219;-71
2022/04/12 01:31:25;;;;;;;6.88;4.05;;;6.40;99.90;;;;;;5037851;28;20071;-71
2022/04/12 01:33:51;;;;;;;6.50;4.30;;;6.70;99.90;;;;;;5051298;28;20236;-71
2022/04/12 01:36:17;;;;;;;6.82;3.70;;;6.10;99.90;;;;;;5047711;28;20096;-71
2022/04/12 01:38:42;;;;;;;5.97;3.90;;;6.10;99.90;;;;;;5043905;28;20078;-72
2022/04/12 01:41:08;;;;;;;6.07;4.50;;;6.20;99.90;;;;;;5055812;28;20067;-71
2022/04/12 01:43:34;;;;;;;5.57;3.83;;;6.10;99.90;;;;;;5045652;28;20036;-71
2022/04/12 01:45:59;;;;;;;8.70;4.10;;;6.10;99.90;;;;;;5003925;28;20328;-71
2022/04/12 01:48:25;;;;;;;6.05;3.85;;;6.30;99.90;;;;;;5040713;28;20056;-72
2022/04/12 01:50:51;;;;;;;5.57;3.50;;;6.10;99.90;;;;;;5067449;28;20057;-71
2022/04/12 01:53:17;;;;;;;9.13;4.03;;;6.20;99.90;;;;;;5040402;28;20029;-71
2022/04/12 01:55:43;;;;;;;6.60;4.35;;;6.20;99.90;;;;;;5041050;28;20225;-71
2022/04/12 01:58:08;;;;;;;5.78;3.95;;;6.10;99.90;;;;;;5004067;28;20117;-71
2022/04/12 02:00:36;;;;;;;5.88;4.38;;;6.20;99.90;;;;;;5037787;28;20037;-72
2022/04/12 02:03:03;;;;;;;7.50;4.40;;;6.60;99.90;;;;;;5037514;28;20069;-72
2022/04/12 02:05:28;;;;;;;7.90;4.45;;;6.00;99.90;;;;;;5052432;28;20025;-72
2022/04/12 02:07:54;;;;;;;8.25;4.30;;;6.30;99.90;;;;;;5040822;28;20053;-72
2022/04/12 02:10:22;;;;;;;7.65;4.03;;;6.10;99.90;;;;;;5007031;28;20029;-72
2022/04/12 02:12:49;;;;;;;9.18;4.80;;;6.10;99.90;;;;;;5055308;28;20051;-71
2022/04/12 02:15:15;;;;;;;8.98;4.90;;;6.10;99.90;;;;;;5048411;28;20096;-72
2022/04/12 02:17:41;;;;;;;5.85;4.07;;;6.10;99.90;;;;;;5056032;28;20064;-72
2022/04/12 02:20:07;;;;;;;7.47;4.80;;;6.50;99.90;;;;;;5040115;28;20029;-71
2022/04/12 02:22:32;;;;;;;6.88;4.57;;;5.90;99.90;;;;;;5048795;28;20082;-73
2022/04/12 02:24:58;;;;;;;6.90;4.93;;;5.90;99.90;;;;;;5034137;28;20096;-72
2022/04/12 02:27:24;;;;;;;7.38;4.10;;;5.80;99.90;;;;;;5039498;28;20076;-73
2022/04/12 02:29:49;;;;;;;7.68;4.50;;;5.90;99.90;;;;;;5040388;28;20029;-72
2022/04/12 02:32:15;;;;;;;9.63;5.18;;;5.90;99.90;;;;;;5040096;28;20104;-71
2022/04/12 02:34:41;;;;;;;5.90;4.38;;;5.80;99.90;;;;;;5022597;28;20037;-71
2022/04/12 02:37:07;;;;;;;9.20;4.78;;;5.90;99.90;;;;;;5036220;28;20102;-71
2022/04/12 02:39:32;;;;;;;9.35;5.00;;;5.80;99.90;;;;;;5059894;28;20091;-71
2022/04/12 02:41:58;;;;;;;8.65;4.70;;;5.90;99.90;;;;;;5039601;28;20029;-71
2022/04/12 02:44:24;;;;;;;6.00;4.95;;;5.80;99.90;;;;;;5023394;28;20029;-71
2022/04/12 02:46:49;;;;;;;6.82;4.82;;;5.90;99.90;;;;;;5037511;28;20088;-71
2022/04/12 02:49:15;;;;;;;6.35;4.95;;;5.70;99.90;;;;;;5023177;28;20049;-71
2022/04/12 02:51:40;;;;;;;9.73;5.43;;;5.90;99.90;;;;;;5020738;28;20316;-72
2022/04/12 02:54:06;;;;;;;7.55;5.00;;;5.90;99.90;;;;;;5002366;28;20247;-72
2022/04/12 02:56:32;;;;;;;6.68;5.15;;;5.80;99.90;;;;;;5050318;28;20332;-71
2022/04/12 02:58:57;;;;;;;9.13;6.15;;;5.80;99.90;;;;;;5043242;28;20208;-70
2022/04/12 03:01:23;;;;;;;11.35;6.03;;;5.70;99.90;;;;;;5046604;28;20037;-71
2022/04/12 03:03:49;;;;;;;8.10;5.20;;;6.00;99.90;;;;;;5039788;28;20033;-70
2022/04/12 03:06:14;;;;;;;9.52;5.95;;;6.00;99.90;;;;;;5039175;28;20327;-70
2022/04/12 03:08:40;;;;;;;7.40;5.10;;;6.00;99.90;;;;;;5051336;28;20052;-71
2022/04/12 03:11:06;;;;;;;11.95;6.60;;;6.00;99.90;;;;;;5076275;28;20033;-72
2022/04/12 03:13:31;;;;;;;8.38;5.68;;;6.40;99.90;;;;;;5042546;28;20084;-71
2022/04/12 03:15:57;;;;;;;7.68;5.95;;;5.90;99.90;;;;;;5041789;28;20104;-70
2022/04/12 03:18:23;;;;;;;8.68;5.75;;;5.90;99.90;;;;;;5053538;28;20040;-71
2022/04/12 03:20:51;;;;;;;8.23;6.18;;;5.90;99.90;;;;;;5057422;28;20033;-70
2022/04/12 03:23:18;;;;;;;9.23;5.88;;;5.80;99.90;;;;;;5037670;28;20259;-70
2022/04/12 03:25:43;;;;;;;8.00;5.57;;;5.80;99.90;;;;;;5023295;28;20038;-70
2022/04/12 03:28:09;;;;;;;9.77;5.93;;;5.70;99.90;;;;;;5004103;28;20068;-71
2022/04/12 03:30:35;;;;;;;8.85;6.13;;;5.70;99.90;;;;;;5059621;28;20045;-71
2022/04/12 03:33:01;;;;;;;8.15;5.88;;;5.70;99.90;;;;;;5059613;28;20464;-72
2022/04/12 03:35:26;;;;;;;10.40;5.97;;;5.70;99.90;;;;;;5043975;28;20021;-71
2022/04/12 03:37:52;;;;;;;8.98;5.93;;;5.80;99.90;;;;;;5057958;28;20040;-71
2022/04/12 03:40:18;;;;;;;8.38;5.50;;;5.70;99.90;;;;;;5049844;28;20040;-71
2022/04/12 03:42:44;;;;;;;9.75;6.70;;;5.50;99.90;;;;;;5072973;28;20308;-71
2022/04/12 03:45:10;;;;;;;9.15;6.00;;;5.70;99.90;;;;;;5038710;28;20053;-71
2022/04/12 03:47:36;;;;;;;9.10;6.15;;;5.70;99.90;;;;;;5040836;28;20049;-71
2022/04/12 03:50:02;;;;;;;8.43;5.72;;;5.80;99.90;;;;;;5025087;28;20338;-71
2022/04/12 03:52:28;;;;;;;7.53;5.68;;;5.50;99.90;;;;;;5039664;28;20087;-70
2022/04/12 03:54:54;;;;;;;10.32;6.45;;;5.60;99.90;;;;;;5042879;28;20294;-71
2022/04/12 03:57:19;;;;;;;9.43;6.63;;;5.80;99.90;;;;;;5059398;28;20036;-71
2022/04/12 03:59:45;;;;;;;8.52;7.38;;;5.70;99.90;;;;;;5057463;28;20432;-72
2022/04/12 04:02:11;;;;;;;8.95;6.63;;;5.70;99.90;;;;;;5054656;28;20079;-70
2022/04/12 04:04:36;;;;;;;9.00;6.63;;;5.50;99.90;;;;;;5043105;28;20036;-70
2022/04/12 04:07:02;;;;;;;8.10;6.22;;;5.60;99.90;;;;;;5042826;28;20092;-70
2022/04/12 04:09:28;;;;;;;10.27;6.40;;;5.60;99.90;;;;;;5042610;28;20038;-72
2022/04/12 04:11:55;;;;;;;11.50;7.28;;;5.60;99.90;;;;;;5030128;28;20390;-71
2022/04/12 04:14:22;;;;;;;9.93;6.65;;;5.60;99.90;;;;;;5073989;28;20091;-71
2022/04/12 04:16:48;;;;;;;8.30;6.72;;;5.50;99.90;;;;;;5040123;28;20104;-71
2022/04/12 04:19:13;;;;;;;10.70;7.25;;;5.50;99.90;;;;;;5059132;28;20320;-71
2022/04/12 04:21:39;;;;;;;9.60;6.70;;;5.40;99.90;;;;;;5035846;28;20022;-72
2022/04/12 04:24:05;;;;;;;11.23;7.13;;;5.50;99.90;;;;;;5022056;28;20034;-71
2022/04/12 04:26:31;;;;;;;11.23;7.13;;;5.70;99.90;;;;;;5025868;28;20249;-72
2022/04/12 04:28:57;;;;;;;11.30;7.30;;;5.50;99.90;;;;;;5068716;28;20068;-71
2022/04/12 04:31:23;;;;;;;10.85;8.05;;;5.70;99.90;;;;;;5040408;28;20037;-71
2022/04/12 04:33:49;;;;;;;12.00;8.02;;;5.70;99.90;;;;;;5036849;28;20193;-71
2022/04/12 04:36:14;;;;;;;10.68;7.78;;;5.70;99.90;;;;;;5031683;28;20056;-71
2022/04/12 04:38:40;;;;;;;14.10;8.20;;;5.70;99.90;;;;;;5042559;28;20389;-70
2022/04/12 04:41:06;;;;;;;9.57;6.50;;;5.70;99.90;;;;;;5042969;28;20021;-70
2022/04/12 04:43:31;;;;;;;10.27;6.97;;;5.60;99.90;;;;;;5049523;28;20033;-70
2022/04/12 04:45:57;;;;;;;9.82;7.00;;;5.70;99.90;;;;;;5034820;28;20082;-70
2022/04/12 04:48:23;;;;;;;8.68;6.28;;;6.00;99.90;;;;;;5040707;28;20048;-70
2022/04/12 04:50:49;;;;;;;10.00;6.65;;;5.50;99.90;;;;;;5029569;28;20029;-70
2022/04/12 04:53:14;;;;;;;10.65;6.82;;;5.40;99.90;;;;;;5041859;28;20037;-71
2022/04/12 04:55:43;;;;;;;10.65;7.07;;;5.40;99.90;;;;;;5059428;28;20033;-71
2022/04/12 04:58:10;;;;;;;11.05;6.75;;;5.50;99.90;;;;;;5040068;28;20042;-70
2022/04/12 05:00:36;;;;;;;12.70;7.45;;;5.60;99.90;;;;;;5074159;28;20373;-71
2022/04/12 05:03:03;;;;;;;9.57;6.95;;;5.60;99.90;;;;;;5059785;28;20112;-71
2022/04/12 05:05:29;;;;;;;11.32;7.85;;;5.50;99.90;;;;;;5042243;28;20064;-70
2022/04/12 05:07:56;;;;;;;9.65;6.85;;;5.60;99.90;;;;;;5041074;28;20397;-71
2022/04/12 05:10:24;;;;;;;11.75;7.25;;;5.60;99.90;;;;;;5025655;28;20101;-71
2022/04/12 05:12:50;;;;;;;13.10;7.75;;;5.50;99.90;;;;;;5026090;28;20037;-70
2022/04/12 05:15:16;;;;;;;12.00;7.65;;;5.60;99.90;;;;;;5041477;28;20213;-72
2022/04/12 05:17:49;;;;;;;10.82;7.65;;;5.40;99.90;;;;;;5041053;28;20029;-71
2022/04/12 05:20:15;;;;;;;9.13;7.07;;;5.60;99.90;;;;;;5041935;28;20267;-71
2022/04/12 05:22:40;;;;;;;10.18;6.90;;;5.40;99.90;;;;;;5042138;28;20033;-71
2022/04/12 05:25:06;;;;;;;12.02;6.90;;;5.40;99.90;;;;;;5041872;28;20232;-72
2022/04/12 05:27:33;;;;;;;9.10;6.38;;;5.30;99.90;;;;;;5023203;28;20049;-71
2022/04/12 05:30:00;;;;;;;10.90;7.60;;;5.60;99.90;;;;;;5041776;28;20088;-72
2022/04/12 05:32:25;;;;;;;11.73;8.23;;;5.50;99.90;;;;;;5041724;28;20224;-71
2022/04/12 05:34:52;;;;;;;10.48;7.75;;;5.60;99.90;;;;;;5040642;28;20037;-71
2022/04/12 05:37:18;;;;;;;11.82;8.23;;;6.00;99.90;;;;;;5023925;28;20100;-72
2022/04/12 05:39:43;;;;;;;10.13;7.30;;;5.60;99.90;;;;;;5039634;28;20026;-72
2022/04/12 05:42:10;;;;;;;11.43;7.88;;;5.80;99.90;;;;;;5040748;28;20358;-72
2022/04/12 05:44:36;;;;;;;9.57;7.85;;;5.90;99.90;;;;;;5040386;28;20048;-72
2022/04/12 05:47:03;;;;;;;8.93;6.65;;;5.80;99.90;;;;;;5024412;28;20049;-72
2022/04/12 05:49:30;;;;;;;11.43;6.75;;;6.10;99.90;;;;;;5038514;28;20052;-72
2022/04/12 05:51:56;;;;;;;6.70;5.20;;;6.10;99.90;;;;;;5040560;28;20362;-72
2022/04/12 05:54:23;;;;;;;10.43;7.15;;;6.50;99.90;;;;;;5073694;28;20029;-72
2022/04/12 05:56:49;;;;;;;11.57;6.65;;;6.40;99.90;;;;;;5040588;28;20037;-71
2022/04/12 05:59:15;;;;;;;8.52;6.38;;;6.70;99.90;;;;;;5038475;28;20049;-71
2022/04/12 06:01:41;;;;;;;10.98;7.28;;;6.60;99.90;;;;;;5038778;28;20029;-70
2022/04/12 06:04:08;;;;;;;9.43;6.07;;;6.80;99.90;;;;;;5040623;28;20029;-71
2022/04/12 06:06:34;;;;;;;7.65;5.78;;;7.00;99.90;;;;;;5023250;28;20110;-71
2022/04/12 06:09:00;;;;;;;11.02;7.32;;;6.80;99.90;;;;;;5041122;28;20062;-71
2022/04/12 06:11:27;;;;;;;7.90;5.97;;;6.80;99.90;;;;;;5038772;28;20104;-71
2022/04/12 06:13:53;;;;;;;10.82;6.40;;;7.00;99.90;;;;;;5073837;28;20104;-70
2022/04/12 06:16:19;;;;;;;9.70;6.03;;;6.90;99.90;;;;;;5072607;28;20033;-70
2022/04/12 06:18:45;;;;;;;10.98;7.63;;;6.80;99.90;;;;;;5023854;28;20044;-71
2022/04/12 06:21:11;;;;;;;10.65;7.20;;;6.90;99.90;;;;;;5055781;28;20294;-71
2022/04/12 06:23:36;;;;;;;10.20;6.90;;;6.90;99.90;;;;;;5039973;28;20041;-72
2022/04/12 06:26:02;;;;;;;10.70;7.28;;;6.80;99.90;;;;;;5023810;28;20399;-71
2022/04/12 06:28:29;;;;;;;9.27;7.30;;;6.80;99.90;;;;;;5039426;28;20266;-72
2022/04/12 06:30:57;;;;;;;9.38;6.15;;;6.80;99.90;;;;;;5038629;28;20204;-72
2022/04/12 06:33:24;;;;;;;10.38;6.70;;;7.10;99.90;;;;;;5039703;28;20044;-72
2022/04/12 06:35:50;;;;;;;10.70;7.63;;;7.00;99.90;;;;;;5023685;28;20272;-72
2022/04/12 06:38:16;;;;;;;11.20;6.45;;;7.30;99.90;;;;;;5040177;28;20030;-72
2022/04/12 06:40:44;;;;;;;9.98;6.72;;;7.20;99.90;;;;;;5021501;28;20051;-72
2022/04/12 06:43:11;;;;;;;8.48;6.30;;;7.30;99.90;;;;;;5039310;28;20037;-72
2022/04/12 06:45:40;;;;;;;12.80;7.55;;;7.40;99.90;;;;;;5023031;28;20165;-72
2022/04/12 06:48:06;;;;;;;8.65;6.47;;;7.60;99.90;;;;;;5039258;28;20041;-71
2022/04/12 06:50:32;;;;;;;12.90;7.00;;;7.70;99.90;;;;;;5055660;28;20029;-72
2022/04/12 06:52:58;;;;;;;11.13;7.75;;;7.80;99.90;;;;;;5053401;28;20033;-71
2022/04/12 06:55:25;;;;;;;10.23;7.68;;;7.80;99.90;;;;;;5038345;28;20208;-72
2022/04/12 06:57:51;;;;;;;10.20;7.35;;;7.90;99.90;;;;;;5022396;28;20022;-71
2022/04/12 07:00:18;;;;;;;10.60;6.35;;;8.10;99.90;;;;;;5039541;28;20033;-72
2022/04/12 07:02:44;;;;;;;16.30;8.00;;;7.80;99.90;;;;;;5023800;28;20096;-71
2022/04/12 07:05:10;;;;;;;9.65;6.50;;;8.00;99.90;;;;;;5039432;28;20263;-71
2022/04/12 07:07:37;;;;;;;14.35;8.63;;;8.00;99.90;;;;;;5038592;28;20052;-71
2022/04/12 07:10:05;;;;;;;9.07;6.70;;;8.10;99.90;;;;;;5039728;28;20037;-71
2022/04/12 07:12:31;;;;;;;10.60;7.50;;;8.10;99.90;;;;;;5022411;28;20208;-71
2022/04/12 07:14:57;;;;;;;11.57;7.35;;;8.00;99.90;;;;;;5021404;28;20216;-72
2022/04/12 07:17:22;;;;;;;8.85;6.70;;;8.20;99.90;;;;;;5023423;28;20040;-71
2022/04/12 07:19:48;;;;;;;9.93;6.70;;;8.30;99.90;;;;;;5022457;28;20239;-72
2022/04/12 07:22:14;;;;;;;10.50;7.55;;;8.30;99.90;;;;;;5023739;28;20029;-72
2022/04/12 07:24:40;;;;;;;12.43;8.10;;;8.20;99.90;;;;;;5043199;28;20026;-72
2022/04/12 07:27:06;;;;;;;10.95;7.15;;;8.30;99.90;;;;;;5040424;28;20192;-72
2022/04/12 07:29:32;;;;;;;10.93;7.18;;;8.30;99.90;;;;;;5043165;28;20076;-72
2022/04/12 07:31:57;;;;;;;11.15;7.18;;;8.50;99.90;;;;;;5043490;28;20032;-72
2022/04/12 07:34:23;;;;;;;10.63;6.82;;;8.80;99.90;;;;;;5037904;28;20221;-73
2022/04/12 07:36:53;;;;;;;10.15;6.78;;;8.80;99.90;;;;;;5035730;28;20335;-73
2022/04/12 07:39:20;;;;;;;12.45;8.10;;;8.80;99.90;;;;;;5036518;28;20127;-74
2022/04/12 07:41:47;;;;;;;10.43;7.82;;;9.10;99.90;;;;;;5036044;28;20029;-76
2022/04/12 07:44:14;;;;;;;11.88;7.00;;;9.30;99.90;;;;;;5037045;28;20037;-74
2022/04/12 07:46:40;;;;;;;15.27;8.13;;;9.40;99.90;;;;;;5036035;28;20064;-75
2022/04/12 07:49:06;;;;;;;10.25;7.07;;;9.50;99.90;;;;;;5019920;28;20081;-75
2022/04/12 07:51:32;;;;;;;10.23;7.63;;;9.60;99.90;;;;;;5036268;28;20045;-74
2022/04/12 07:53:58;;;;;;;10.73;6.65;;;9.70;99.90;;;;;;5036362;28;20098;-74
2022/04/12 07:56:24;;;;;;;10.30;6.78;;;9.70;99.90;;;;;;5020044;28;20046;-76
2022/04/12 07:58:49;;;;;;;7.78;6.28;;;9.90;99.90;;;;;;5036706;28;20115;-77
2022/04/12 08:01:15;;;;;;;9.68;6.65;;;9.90;99.90;;;;;;5036418;28;20111;-72
2022/04/12 08:03:41;;;;;;;9.50;6.65;;;10.10;99.90;;;;;;5035368;28;20268;-71
2022/04/12 08:06:08;;;;;;;11.63;7.45;;;10.20;99.90;;;;;;5019946;28;20120;-70
2022/04/12 08:08:33;;;;;;;9.02;7.00;;;10.30;99.90;;;;;;5018881;28;20044;-71
2022/04/12 08:11:00;;;;;;;10.50;6.38;;;10.20;99.90;;;;;;5019503;28;20041;-71
2022/04/12 08:13:25;;;;;;;10.60;7.18;;;10.40;99.90;;;;;;5035821;28;20080;-74
2022/04/12 08:15:51;;;;;;;8.63;6.47;;;10.60;99.90;;;;;;5036135;28;20038;-70
2022/04/12 08:18:17;;;;;;;9.27;6.03;;;10.70;99.90;;;;;;5036259;28;20040;-70
2022/04/12 08:20:42;;;;;;;10.00;6.57;;;10.70;99.90;;;;;;5035898;28;20239;-71
2022/04/12 08:23:08;;;;;;;9.80;5.80;;;10.80;99.90;;;;;;5036069;28;20238;-71
2022/04/12 08:25:34;;;;;;;9.38;7.38;;;10.80;99.90;;;;;;5035472;28;20037;-72
2022/04/12 08:28:00;;;;;;;13.10;7.15;;;11.10;99.90;;;;;;5036122;28;20091;-71
2022/04/12 08:30:26;;;;;;;11.27;6.80;;;11.10;99.90;;;;;;5035849;28;20369;-71
2022/04/12 08:32:51;;;;;;;12.23;7.35;;;11.20;99.90;;;;;;5035448;28;20048;-70
2022/04/12 08:35:17;;;;;;;10.40;7.43;;;11.30;99.90;;;;;;5019418;28;20041;-71
2022/04/12 08:37:44;;;;;;;12.55;7.60;;;11.40;99.90;;;;;;5035437;28;20088;-71
2022/04/12 08:40:11;;;;;;;8.25;5.95;;;11.50;99.90;;;;;;5035076;28;20087;-73
2022/04/12 08:42:37;;;;;;;10.27;7.38;;;11.50;99.90;;;;;;5068633;28;20041;-72
2022/04/12 08:45:06;;;;;;;9.70;6.85;;;11.50;99.90;;;;;;5069699;28;20614;-72
2022/04/12 08:47:35;;;;;;;9.57;6.88;;;11.70;99.90;;;;;;5036681;28;20121;-72
2022/04/12 08:50:02;;;;;;;9.52;6.43;;;12.00;99.90;;;;;;5003678;28;20037;-72
2022/04/12 08:52:28;;;;;;;9.82;6.82;;;12.00;99.90;;;;;;5068842;28;20357;-70
2022/04/12 08:54:54;;;;;;;10.63;8.02;;;12.20;99.90;;;;;;5035785;28;20103;-71
2022/04/12 08:57:20;;;;;;;11.88;8.10;;;12.20;99.90;;;;;;5051989;28;20041;-71
2022/04/12 08:59:47;;;;;;;10.75;8.38;;;12.30;99.90;;;;;;5034806;28;20205;-71
2022/04/12 09:02:12;;;;;;;11.07;7.63;;;12.50;99.90;;;;;;5001633;28;20235;-71
2022/04/12 09:04:39;;;;;;;10.98;7.28;;;12.60;99.90;;;;;;5017984;28;20076;-71
2022/04/12 09:07:09;;;;;;;9.82;6.80;;;12.80;99.90;;;;;;5017179;28;20084;-71
2022/04/12 09:09:36;;;;;;;8.55;5.93;;;12.70;99.90;;;;;;5034955;28;20037;-71
2022/04/12 09:12:09;;;;;;;7.05;5.30;;;12.90;99.90;;;;;;5035271;28;20041;-72
2022/04/12 09:14:58;;;;;;;8.65;6.75;;;12.80;99.90;;;;;;5017685;28;20068;-71
2022/04/12 09:17:30;;;;;;;9.68;7.57;;;12.90;99.90;;;;;;5034084;28;20049;-71
2022/04/12 09:19:56;;;;;;;8.45;6.43;;;13.10;99.90;;;;;;5034454;28;20335;-71
2022/04/12 09:22:24;;;;;;;10.13;7.53;;;13.20;99.90;;;;;;5034326;28;20111;-71
2022/04/12 09:25:01;;;;;;;9.32;6.75;;;13.30;99.90;;;;;;5034124;28;20041;-72
2022/04/12 09:27:29;;;;;;;8.85;7.10;;;13.40;99.90;;;;;;5034843;28;20277;-72
2022/04/12 09:30:01;;;;;;;9.90;7.30;;;13.60;99.90;;;;;;5017845;28;20434;-72
2022/04/12 09:32:29;;;;;;;12.90;8.30;;;13.50;99.90;;;;;;5034781;28;20048;-72
2022/04/12 09:34:56;;;;;;;9.80;7.30;;;13.90;99.90;;;;;;5034620;28;20355;-72
2022/04/12 09:37:24;;;;;;;9.85;8.00;;;14.10;99.90;;;;;;5034572;28;20048;-71
2022/04/12 09:39:59;;;;;;;11.50;7.93;;;14.30;99.90;;;;;;5034021;28;20061;-73
2022/04/12 09:42:48;;;;;;;9.02;7.03;;;14.40;99.90;;;;;;5034308;28;20048;-72
2022/04/12 09:45:30;;;;;;;10.45;7.70;;;14.60;99.90;;;;;;5033948;28;20110;-72
2022/04/12 09:48:02;;;;;;;8.35;6.80;;;14.70;99.90;;;;;;5017593;28;20046;-72
2022/04/12 09:50:29;;;;;;;9.40;7.00;;;15.00;99.90;;;;;;5034406;28;20136;-72
2022/04/12 09:53:05;;;;;;;9.63;7.78;;;15.00;99.90;;;;;;5034147;28;20351;-71
2022/04/12 09:55:38;;;;;;;10.60;7.13;;;15.20;99.90;;;;;;5034178;28;20044;-72
2022/04/12 09:58:09;;;;;;;7.38;5.50;;;15.20;99.90;;;;;;5034480;28;20048;-72
2022/04/12 10:00:36;;;;;;;8.93;6.82;;;15.10;99.90;;;;;;5033851;28;20037;-71
2022/04/12 10:03:05;;;;;;;10.93;7.95;;;15.50;99.90;;;;;;5034171;28;20226;-73
2022/04/12 10:05:31;;;;;;;10.02;7.60;;;15.70;99.90;;;;;;5033498;28;20252;-73
2022/04/12 10:08:00;;;;;;;8.15;7.20;;;15.80;99.90;;;;;;5033661;28;20033;-72
2022/04/12 10:10:27;;;;;;;9.00;7.22;;;15.60;99.90;;;;;;5033911;28;20095;-73
2022/04/12 10:12:57;;;;;;;9.20;7.00;;;15.90;99.90;;;;;;5033712;28;20053;-70
2022/04/12 10:15:25;;;;;;;9.40;7.43;;;15.90;99.90;;;;;;5033799;28;20038;-71
2022/04/12 10:17:51;;;;;;;8.75;7.35;;;16.10;99.90;;;;;;5033585;28;20041;-73
2022/04/12 10:20:18;;;;;;;10.98;7.10;;;16.00;99.90;;;;;;5034024;28;20106;-73
2022/04/12 10:22:48;;;;;;;9.20;7.80;;;16.00;99.90;;;;;;5033314;28;20037;-74
2022/04/12 10:25:23;;;;;;;9.27;7.72;;;15.90;99.90;;;;;;5033728;28;20056;-74
2022/04/12 10:27:53;;;;;;;8.20;5.93;;;16.20;99.90;;;;;;5016930;28;20368;-72
2022/04/12 10:30:18;;;;;;;9.68;7.47;;;16.60;99.90;;;;;;5033810;28;20045;-69
2022/04/12 10:33:05;;;;;;;10.50;7.47;;;16.70;99.90;;;;;;5033246;28;20044;-72
2022/04/12 10:35:46;;;;;;;8.75;6.32;;;16.30;97.00;;;;;;5033503;28;20112;-73
2022/04/12 10:38:17;;;;;;;7.18;5.57;;;16.60;99.00;;;;;;5033642;28;20339;-74
2022/04/12 10:40:51;;;;;;;8.35;6.82;;;16.90;97.30;;;;;;5033249;28;20291;-72
2022/04/12 10:43:38;;;;;;;7.40;6.32;;;16.80;93.40;;;;;;5033718;28;20052;-73
2022/04/12 10:46:08;;;;;;;9.77;6.97;;;17.20;94.30;;;;;;5017018;28;20076;-70
2022/04/12 10:48:34;;;;;;;14.02;8.77;;;17.10;94.90;;;;;;5049548;28;20060;-72
2022/04/12 10:51:03;;;;;;;8.95;6.63;;;17.10;96.70;;;;;;5016928;28;20048;-70
2022/04/12 10:53:48;;;;;;;9.45;7.57;;;16.90;93.60;;;;;;5033187;28;20045;-72
2022/04/12 10:56:16;;;;;;;12.77;7.47;;;17.00;93.10;;;;;;5016497;28;20288;-73
2022/04/12 10:58:43;;;;;;;8.05;6.43;;;17.00;96.50;;;;;;5032471;28;20041;-74
2022/04/12 11:01:12;;;;;;;9.65;7.00;;;17.00;95.20;;;;;;5032967;28;20131;-73
2022/04/12 11:03:41;;;;;;;9.10;5.78;;;17.30;96.10;;;;;;5032083;28;20068;-72
2022/04/12 11:06:11;;;;;;;14.13;7.68;;;16.90;94.70;;;;;;5033135;28;20042;-73
2022/04/12 11:08:40;;;;;;;9.45;7.10;;;17.60;96.90;;;;;;5016328;28;20068;-72
2022/04/12 11:11:06;;;;;;;8.63;7.22;;;17.50;96.00;;;;;;5032817;28;20095;-73
2022/04/12 11:13:35;;;;;;;10.75;7.93;;;17.50;94.20;;;;;;5032910;28;20033;-72
2022/04/12 11:16:03;;;;;;;8.95;6.80;;;17.40;95.40;;;;;;5032676;28;20048;-73
2022/04/12 11:18:51;;;;;;;8.45;6.78;;;17.60;93.80;;;;;;5032806;28;20034;-73
2022/04/12 11:21:19;;;;;;;7.95;6.88;;;17.50;92.00;;;;;;5032805;28;20318;-74
2022/04/12 11:23:57;;;;;;;11.73;7.43;;;17.60;91.90;;;;;;5032503;28;20219;-73
2022/04/12 11:26:49;;;;;;;10.43;8.45;;;17.60;93.30;;;;;;5032954;28;20089;-73
2022/04/12 11:29:23;;;;;;;8.63;7.38;;;17.40;92.10;;;;;;5032790;28;20048;-72
2022/04/12 11:31:53;;;;;;;9.18;6.85;;;17.60;93.60;;;;;;5032430;28;20054;-71
2022/04/12 11:34:21;;;;;;;9.05;7.10;;;17.90;92.70;;;;;;5016179;28;20235;-72
2022/04/12 11:36:55;;;;;;;8.88;7.93;;;17.90;94.40;;;;;;5032279;28;20332;-73
2022/04/12 11:39:23;;;;;;;11.98;8.07;;;17.60;96.20;;;;;;5016177;28;20046;-72
2022/04/12 11:41:49;;;;;;;14.93;8.95;;;17.70;95.50;;;;;;5032389;28;20044;-73
2022/04/12 11:44:15;;;;;;;11.18;7.65;;;17.90;95.80;;;;;;5032902;28;20033;-73
2022/04/12 11:46:40;;;;;;;11.25;7.55;;;17.80;95.60;;;;;;5032262;28;20050;-72
2022/04/12 11:49:12;;;;;;;10.52;7.63;;;18.00;95.50;;;;;;5032767;28;20076;-72
2022/04/12 11:51:40;;;;;;;12.80;8.52;;;17.90;94.40;;;;;;5032240;28;20052;-73
2022/04/12 11:54:27;;;;;;;11.57;7.95;;;18.10;95.10;;;;;;5032818;28;20334;-73
2022/04/12 11:57:13;;;;;;;13.93;8.55;;;18.20;95.30;;;;;;5032054;28;20049;-73
2022/04/12 11:59:48;;;;;;;11.70;7.55;;;18.10;95.40;;;;;;5031498;28;20390;-72
2022/04/12 12:02:16;;;;;;;9.63;7.88;;;18.10;94.70;;;;;;5032105;28;20378;-73
2022/04/12 12:04:50;;;;;;;9.60;7.75;;;18.10;96.50;;;;;;5015790;28;20037;-72
2022/04/12 12:07:17;;;;;;;10.25;7.35;;;18.20;94.60;;;;;;5034088;28;20069;-73
2022/04/12 12:09:58;;;;;;;11.43;7.18;;;18.20;92.90;;;;;;5034664;28;20135;-72
2022/04/12 12:12:40;;;;;;;8.35;7.03;;;18.20;91.90;;;;;;5035925;28;20045;-72
2022/04/12 12:15:15;;;;;;;10.57;7.70;;;18.20;93.10;;;;;;5035689;28;20091;-73
2022/04/12 12:17:41;;;;;;;8.65;6.55;;;18.10;93.20;;;;;;5018325;28;20052;-73
2022/04/12 12:20:08;;;;;;;9.80;8.38;;;17.90;93.80;;;;;;5035562;28;20041;-73
2022/04/12 12:22:38;;;;;;;6.60;5.85;;;17.80;94.10;;;;;;5018892;28;20040;-73
2022/04/12 12:25:05;;;;;;;10.77;8.50;;;18.00;93.20;;;;;;5019198;28;20033;-73
2022/04/12 12:27:37;;;;;;;9.25;8.20;;;18.00;94.00;;;;;;5035242;28;20041;-73
2022/04/12 12:30:14;;;;;;;11.40;8.63;;;17.90;93.80;;;;;;5035342;28;20059;-74
2022/04/12 12:32:42;;;;;;;9.10;7.30;;;18.00;92.70;;;;;;5035403;28;20139;-74
2022/04/12 12:35:13;;;;;;;10.38;8.27;;;18.10;94.90;;;;;;5035859;28;20083;-73
2022/04/12 12:37:40;;;;;;;10.27;7.65;;;17.90;93.80;;;;;;5035676;28;20045;-73
2022/04/12 12:40:28;;;;;;;11.25;8.50;;;18.00;93.10;;;;;;5035842;28;20249;-73
2022/04/12 12:42:54;;;;;;;9.45;7.97;;;18.10;92.50;;;;;;5051893;28;20037;-73
2022/04/12 12:45:25;;;;;;;9.68;8.05;;;18.10;92.60;;;;;;5035579;28;20076;-73
2022/04/12 12:47:56;;;;;;;8.88;6.65;;;18.30;93.20;;;;;;5035460;28;20054;-73
2022/04/12 12:50:25;;;;;;;12.02;6.80;;;18.10;91.90;;;;;;5051986;28;20045;-73
2022/04/12 12:52:59;;;;;;;9.95;7.97;;;18.50;92.90;;;;;;5035160;28;20057;-73
2022/04/12 12:55:27;;;;;;;11.52;8.10;;;18.30;90.90;;;;;;5035152;28;20064;-73